Time;durP1;ratioP1;P1;durP2;ratioP2;P2;SDS_P1;SDS_P2;PMS_P1;PMS_P2;Temp;Humidity;BMP_temperature;BMP_pressure;BME280_temperature;BME280_humidity;BME280_pressure;Samples;Min_cycle;Max_cycle;Signal;HPM_P1;HPM_P2
2023/02/23 00:00:19;;;;;;;;;;;9.80;99.90;;;;;;5060791;28;19928;-63
2023/02/23 00:02:47;;;;;;;;;;;9.80;99.90;;;;;;5065939;28;20011;-64
2023/02/23 00:05:13;;;;;;;;;;;9.80;99.90;;;;;;5070977;28;19925;-64
2023/02/23 00:07:42;;;;;;;;;;;9.90;99.90;;;;;;5068403;28;19970;-63
2023/02/23 00:10:11;;;;;;;;;;;9.90;99.90;;;;;;5066560;28;19924;-63
2023/02/23 00:12:38;;;;;;;;;;;9.90;99.90;;;;;;5065060;28;19986;-63
2023/02/23 00:15:06;;;;;;;;;;;10.00;99.90;;;;;;5064596;28;19931;-63
2023/02/23 00:17:35;;;;;;;;;;;10.00;99.90;;;;;;5063615;28;19982;-64
2023/02/23 00:20:06;;;;;;;;;;;10.10;99.90;;;;;;5067912;28;19936;-64
2023/02/23 00:22:33;;;;;;;;;;;10.10;99.90;;;;;;5055015;28;20410;-64
2023/02/23 00:24:59;;;;;;;;;;;10.00;99.90;;;;;;5054997;28;20264;-63
2023/02/23 00:27:27;;;;;;;;;;;10.10;99.90;;;;;;5062750;28;19925;-63
2023/02/23 00:29:54;;;;;;;;;;;10.10;99.90;;;;;;5064933;28;19924;-63
2023/02/23 00:32:20;;;;;;;;;;;10.10;99.90;;;;;;5066225;28;20006;-64
2023/02/23 00:34:48;;;;;;;;;;;10.00;99.90;;;;;;5064305;28;19970;-64
2023/02/23 00:37:15;;;;;;;;;;;10.10;99.90;;;;;;5063743;28;19924;-64
2023/02/23 00:39:41;;;;;;;;;;;10.10;99.90;;;;;;5063714;28;19928;-64
2023/02/23 00:42:09;;;;;;;;;;;10.10;99.90;;;;;;5064990;28;20280;-62
2023/02/23 00:44:39;;;;;;;;;;;10.10;99.90;;;;;;5062450;28;20399;-63
2023/02/23 00:47:06;;;;;;;;;;;9.90;99.90;;;;;;5065399;28;19924;-64
2023/02/23 00:49:33;;;;;;;;;;;9.70;99.90;;;;;;5068703;28;19936;-63
2023/02/23 00:51:59;;;;;;;;;;;9.70;99.90;;;;;;5065745;28;19997;-64
2023/02/23 00:54:26;;;;;;;;;;;9.70;99.90;;;;;;5064906;28;20391;-63
2023/02/23 00:56:52;;;;;;;;;;;9.70;99.90;;;;;;5063411;28;20104;-63
2023/02/23 00:59:19;;;;;;;;;;;9.80;99.90;;;;;;5065042;28;19970;-64
2023/02/23 01:01:47;;;;;;;;;;;9.80;99.90;;;;;;5065851;28;20006;-63
2023/02/23 01:04:15;;;;;;;;;;;9.80;99.90;;;;;;5063338;28;19982;-63
2023/02/23 01:06:42;;;;;;;;;;;9.80;99.90;;;;;;5063505;28;20445;-63
2023/02/23 01:09:09;;;;;;;;;;;9.70;99.90;;;;;;5065577;28;19925;-63
2023/02/23 01:11:36;;;;;;;;;;;9.70;99.90;;;;;;5064007;28;19925;-64
2023/02/23 01:14:02;;;;;;;;;;;9.70;99.90;;;;;;5066691;28;20389;-62
2023/02/23 01:16:30;;;;;;;;;;;9.60;99.90;;;;;;5063213;28;20399;-63
2023/02/23 01:18:59;;;;;;;;;;;9.50;99.90;;;;;;5064761;28;19928;-63
2023/02/23 01:21:26;;;;;;;;;;;9.30;99.90;;;;;;5069144;28;19924;-64
2023/02/23 01:23:53;;;;;;;;;;;9.40;99.90;;;;;;5064530;28;19924;-64
2023/02/23 01:26:21;;;;;;;;;;;9.30;99.90;;;;;;5064341;28;19986;-63
2023/02/23 01:28:48;;;;;;;;;;;9.30;99.90;;;;;;5060470;28;19924;-64
2023/02/23 01:31:15;;;;;;;;;;;9.30;99.90;;;;;;5061470;28;20344;-63
2023/02/23 01:33:41;;;;;;;;;;;9.30;99.90;;;;;;5064972;28;19964;-64
2023/02/23 01:36:09;;;;;;;;;;;9.30;99.90;;;;;;5064344;28;19925;-64
2023/02/23 01:38:36;;;;;;;;;;;9.30;99.90;;;;;;5062145;28;19955;-63
2023/02/23 01:41:03;;;;;;;;;;;9.20;99.90;;;;;;5062632;28;19925;-62
2023/02/23 01:43:30;;;;;;;;;;;9.20;99.90;;;;;;5062406;28;20001;-64
2023/02/23 01:45:57;;;;;;;;;;;9.20;99.90;;;;;;5062017;28;19983;-64
2023/02/23 01:48:26;;;;;;;;;;;9.40;99.90;;;;;;5064844;28;19928;-63
2023/02/23 01:50:54;;;;;;;;;;;9.40;99.90;;;;;;5064805;28;19925;-64
2023/02/23 01:53:23;;;;;;;;;;;9.60;99.90;;;;;;5064253;28;19928;-63
2023/02/23 01:55:50;;;;;;;;;;;9.60;99.90;;;;;;5062163;28;19971;-63
2023/02/23 01:58:19;;;;;;;;;;;9.70;99.90;;;;;;5065821;28;19968;-63
2023/02/23 02:00:47;;;;;;;;;;;9.80;99.90;;;;;;5062393;28;19933;-64
2023/02/23 02:03:17;;;;;;;;;;;9.90;99.90;;;;;;5065691;28;19932;-63
2023/02/23 02:05:45;;;;;;;;;;;10.00;99.90;;;;;;5061634;28;20392;-64
2023/02/23 02:08:12;;;;;;;;;;;10.00;99.90;;;;;;5065649;28;20016;-64
2023/02/23 02:10:43;;;;;;;;;;;9.90;99.90;;;;;;5061747;28;19928;-63
2023/02/23 02:13:13;;;;;;;;;;;9.90;99.90;;;;;;5059039;28;19925;-63
2023/02/23 02:15:43;;;;;;;;;;;9.80;99.90;;;;;;5061791;28;19924;-63
2023/02/23 02:18:17;;;;;;;;;;;9.80;99.90;;;;;;5064993;28;19924;-63
2023/02/23 02:20:53;;;;;;;;;;;9.50;99.90;;;;;;5066385;28;19935;-63
2023/02/23 02:23:42;;;;;;;;;;;9.60;99.90;;;;;;5063758;28;20000;-63
2023/02/23 02:26:19;;;;;;;;;;;9.40;99.90;;;;;;5052862;28;20272;-63
2023/02/23 02:29:07;;;;;;;;;;;9.50;99.90;;;;;;5053928;28;20020;-63
2023/02/23 02:31:50;;;;;;;;;;;9.50;99.90;;;;;;5048703;28;19929;-62
2023/02/23 02:34:35;;;;;;;;;;;9.40;99.90;;;;;;5062773;28;19924;-62
2023/02/23 02:37:22;;;;;;;;;;;9.50;99.90;;;;;;5065851;28;19959;-63
2023/02/23 02:40:13;;;;;;;;;;;9.40;99.90;;;;;;5059814;28;19924;-63
2023/02/23 02:42:47;;;;;;;;;;;9.50;99.90;;;;;;5052693;28;19924;-62
2023/02/23 02:45:15;;;;;;;;;;;9.60;99.90;;;;;;5052894;28;19932;-63
2023/02/23 02:47:45;;;;;;;;;;;9.70;99.90;;;;;;5062073;28;19928;-62
2023/02/23 02:50:15;;;;;;;;;;;9.70;99.90;;;;;;5064399;28;19924;-62
2023/02/23 02:52:45;;;;;;;;;;;9.60;99.90;;;;;;5061843;28;19925;-63
2023/02/23 02:55:15;;;;;;;;;;;9.70;99.90;;;;;;5060052;28;19928;-62
2023/02/23 02:57:43;;;;;;;;;;;9.80;99.90;;;;;;5063306;28;19928;-63
2023/02/23 04:17:39;;;;;;;;;;;9.80;99.90;;;;;;5058043;28;19924;-63
2023/02/23 04:20:06;;;;;;;;;;;9.80;99.90;;;;;;5068823;28;20432;-63
2023/02/23 04:22:34;;;;;;;;;;;9.80;99.90;;;;;;5066858;28;19928;-63
2023/02/23 04:25:00;;;;;;;;;;;9.70;99.90;;;;;;5058811;28;19977;-64
2023/02/23 04:27:27;;;;;;;;;;;9.70;99.90;;;;;;5061730;28;20399;-63
2023/02/23 04:29:53;;;;;;;;;;;9.70;99.90;;;;;;5059797;28;19978;-64
2023/02/23 04:32:20;;;;;;;;;;;9.70;99.90;;;;;;5061120;28;19933;-63
2023/02/23 04:34:48;;;;;;;;;;;9.70;99.90;;;;;;5058645;28;19979;-63
2023/02/23 04:37:15;;;;;;;;;;;9.80;99.90;;;;;;5058006;28;20404;-64
2023/02/23 04:39:47;;;;;;;;;;;9.80;99.90;;;;;;5061994;28;20355;-63
2023/02/23 04:42:13;;;;;;;;;;;9.80;99.90;;;;;;5051279;28;19967;-63
2023/02/23 04:44:40;;;;;;;;;;;9.70;99.90;;;;;;5051109;28;19982;-63
2023/02/23 04:47:06;;;;;;;;;;;9.60;99.90;;;;;;5059352;28;20286;-64
2023/02/23 04:49:33;;;;;;;;;;;9.60;99.90;;;;;;5071301;28;19928;-64
2023/02/23 04:52:01;;;;;;;;;;;9.60;99.90;;;;;;5066983;28;19924;-63
2023/02/23 04:54:27;;;;;;;;;;;9.60;99.90;;;;;;5063724;28;19928;-63
2023/02/23 04:56:54;;;;;;;;;;;9.40;99.90;;;;;;5067328;28;20388;-64
2023/02/23 04:59:21;;;;;;;;;;;9.40;99.90;;;;;;5066669;28;20350;-64
2023/02/23 05:01:47;;;;;;;;;;;9.40;99.90;;;;;;5066743;28;19936;-64
2023/02/23 05:04:14;;;;;;;;;;;9.50;99.90;;;;;;5062999;28;19929;-64
2023/02/23 05:06:41;;;;;;;;;;;9.50;99.90;;;;;;5065157;28;19975;-63
2023/02/23 05:09:09;;;;;;;;;;;9.30;99.90;;;;;;5061836;28;19925;-63
2023/02/23 05:11:36;;;;;;;;;;;9.30;99.90;;;;;;5062812;28;19936;-64
2023/02/23 05:14:03;;;;;;;;;;;9.40;99.90;;;;;;5067082;28;19936;-64
2023/02/23 05:16:30;;;;;;;;;;;9.50;99.90;;;;;;5062736;28;19929;-64
2023/02/23 05:18:56;;;;;;;;;;;9.40;99.90;;;;;;5066015;28;19970;-63
2023/02/23 05:21:23;;;;;;;;;;;9.40;99.90;;;;;;5066208;28;20057;-63
2023/02/23 05:23:50;;;;;;;;;;;9.50;99.90;;;;;;5062786;28;19931;-63
2023/02/23 05:26:18;;;;;;;;;;;9.50;99.90;;;;;;5063534;28;19978;-63
2023/02/23 05:28:44;;;;;;;;;;;9.50;99.90;;;;;;5064926;28;19935;-63
2023/02/23 05:31:11;;;;;;;;;;;9.20;99.90;;;;;;5063479;28;19974;-63
2023/02/23 05:33:41;;;;;;;;;;;9.30;99.90;;;;;;5063329;28;20349;-63
2023/02/23 05:36:08;;;;;;;;;;;9.20;99.90;;;;;;5054082;28;19925;-63
2023/02/23 05:38:35;;;;;;;;;;;9.30;99.90;;;;;;5053970;28;19940;-64
2023/02/23 05:41:04;;;;;;;;;;;9.40;99.90;;;;;;5067407;28;19929;-63
2023/02/23 05:43:32;;;;;;;;;;;9.50;99.90;;;;;;5070320;28;19925;-64
2023/02/23 05:46:00;;;;;;;;;;;9.50;99.90;;;;;;5067761;28;19924;-63
2023/02/23 05:48:26;;;;;;;;;;;9.50;99.90;;;;;;5068653;28;19971;-63
2023/02/23 05:50:53;;;;;;;;;;;9.60;99.90;;;;;;5069372;28;19924;-63
2023/02/23 05:53:19;;;;;;;;;;;9.60;99.90;;;;;;5068415;28;19962;-63
2023/02/23 05:55:46;;;;;;;;;;;9.60;99.90;;;;;;5062917;28;19928;-63
2023/02/23 05:58:12;;;;;;;;;;;9.50;99.90;;;;;;5059949;28;19955;-63
2023/02/23 06:00:40;;;;;;;;;;;9.50;99.90;;;;;;5060393;28;19924;-64
2023/02/23 06:03:07;;;;;;;;;;;9.50;99.90;;;;;;5064117;28;20357;-64
2023/02/23 06:05:33;;;;;;;;;;;9.50;99.90;;;;;;5062162;28;20000;-64
2023/02/23 06:08:00;;;;;;;;;;;9.50;99.90;;;;;;5062286;28;19925;-63
2023/02/23 06:10:27;;;;;;;;;;;9.50;99.90;;;;;;5064291;28;19947;-63
2023/02/23 06:12:53;;;;;;;;;;;9.50;99.90;;;;;;5062647;28;19925;-63
2023/02/23 06:15:20;;;;;;;;;;;9.50;99.90;;;;;;5068991;28;19928;-61
2023/02/23 06:17:48;;;;;;;;;;;9.40;99.90;;;;;;5064990;28;19924;-63
2023/02/23 06:20:14;;;;;;;;;;;9.40;99.90;;;;;;5064240;28;19932;-65
2023/02/23 06:22:41;;;;;;;;;;;9.30;99.90;;;;;;5063888;28;19930;-66
2023/02/23 06:25:11;;;;;;;;;;;9.40;99.90;;;;;;5062348;28;20011;-67
2023/02/23 06:27:38;;;;;;;;;;;9.40;99.90;;;;;;5061586;28;19978;-64
2023/02/23 06:30:05;;;;;;;;;;;9.40;99.90;;;;;;5065504;28;19928;-66
2023/02/23 06:32:32;;;;;;;;;;;9.40;99.90;;;;;;5070719;28;20015;-63
2023/02/23 06:35:00;;;;;;;;;;;9.40;99.90;;;;;;5074645;28;19947;-65
2023/02/23 06:37:27;;;;;;;;;;;9.40;99.90;;;;;;5068659;28;19936;-62
2023/02/23 06:39:53;;;;;;;;;;;9.40;99.90;;;;;;5066042;28;19928;-62
2023/02/23 06:42:20;;;;;;;;;;;9.20;99.90;;;;;;5060797;28;20383;-60
2023/02/23 06:44:46;;;;;;;;;;;9.20;99.90;;;;;;5069930;28;19931;-58
2023/02/23 06:47:13;;;;;;;;;;;9.20;99.90;;;;;;5065082;28;19931;-59
2023/02/23 06:49:40;;;;;;;;;;;9.30;99.90;;;;;;5066854;28;19928;-60
2023/02/23 06:52:08;;;;;;;;;;;9.40;99.90;;;;;;5059847;28;20015;-60
2023/02/23 06:54:36;;;;;;;;;;;10.00;99.90;;;;;;5062617;28;19948;-60
2023/02/23 06:57:03;;;;;;;;;;;9.50;99.90;;;;;;5062687;28;19925;-59
2023/02/23 06:59:30;;;;;;;;;;;9.50;99.90;;;;;;5062799;28;19955;-59
2023/02/23 07:01:57;;;;;;;;;;;9.50;99.90;;;;;;5061869;28;20506;-59
2023/02/23 07:04:24;;;;;;;;;;;9.50;99.90;;;;;;5064105;28;19925;-56
2023/02/23 07:06:51;;;;;;;;;;;9.50;99.90;;;;;;5063086;28;19940;-68
2023/02/23 07:09:19;;;;;;;;;;;9.60;99.90;;;;;;5063101;28;20009;-69
2023/02/23 07:11:45;;;;;;;;;;;9.80;99.90;;;;;;5060854;28;20268;-68
2023/02/23 07:14:12;;;;;;;;;;;9.80;99.90;;;;;;5060994;28;19970;-70
2023/02/23 07:16:39;;;;;;;;;;;9.90;99.90;;;;;;5062789;28;19928;-61
2023/02/23 07:19:06;;;;;;;;;;;9.90;99.90;;;;;;5066991;28;20239;-60
2023/02/23 07:21:33;;;;;;;;;;;9.80;99.90;;;;;;5063864;28;19979;-61
2023/02/23 07:24:00;;;;;;;;;;;9.80;99.90;;;;;;5065726;28;19925;-62
2023/02/23 07:26:27;;;;;;;;;;;9.80;99.90;;;;;;5063505;28;19978;-61
2023/02/23 07:28:54;;;;;;;;;;;9.80;99.90;;;;;;5060200;28;19929;-61
2023/02/23 07:31:21;;;;;;;;;;;9.70;99.90;;;;;;5060973;28;20353;-60
2023/02/23 07:33:47;;;;;;;;;;;9.70;99.90;;;;;;5062553;28;19940;-62
2023/02/23 07:36:14;;;;;;;;;;;9.70;99.90;;;;;;5060586;28;19990;-62
2023/02/23 07:38:40;;;;;;;;;;;9.60;99.90;;;;;;5060491;28;19932;-64
2023/02/23 07:41:07;;;;;;;;;;;9.60;99.90;;;;;;5062245;28;19924;-63
2023/02/23 07:43:35;;;;;;;;;;;9.60;99.90;;;;;;5060812;28;19971;-63
2023/02/23 07:46:02;;;;;;;;;;;9.60;99.90;;;;;;5060134;28;19929;-62
2023/02/23 07:48:28;;;;;;;;;;;9.60;99.90;;;;;;5063358;28;20399;-62
2023/02/23 07:50:55;;;;;;;;;;;9.60;99.90;;;;;;5061106;28;19931;-62
2023/02/23 07:53:22;;;;;;;;;;;9.40;99.90;;;;;;5062048;28;19932;-62
2023/02/23 07:55:55;;;;;;;;;;;9.30;99.90;;;;;;5061569;28;19931;-63
2023/02/23 07:58:21;;;;;;;;;;;9.40;99.90;;;;;;5059724;28;19929;-63
2023/02/23 08:00:49;;;;;;;;;;;9.50;99.90;;;;;;5061126;28;19978;-62
2023/02/23 08:03:16;;;;;;;;;;;9.60;99.90;;;;;;5064824;28;19925;-62
2023/02/23 08:05:43;;;;;;;;;;;9.60;99.90;;;;;;5062032;28;19928;-62
2023/02/23 08:08:10;;;;;;;;;;;9.50;99.90;;;;;;5058547;28;19924;-61
2023/02/23 08:10:37;;;;;;;;;;;9.50;99.90;;;;;;5050811;28;20295;-62
2023/02/23 08:13:04;;;;;;;;;;;9.50;99.90;;;;;;5050914;28;20431;-61
2023/02/23 08:15:31;;;;;;;;;;;9.20;99.90;;;;;;5062292;28;19978;-63
2023/02/23 08:17:59;;;;;;;;;;;9.20;99.90;;;;;;5067228;28;20011;-64
2023/02/23 08:20:26;;;;;;;;;;;9.30;99.90;;;;;;5063072;28;20374;-64
2023/02/23 08:22:53;;;;;;;;;;;9.40;99.90;;;;;;5061899;28;19925;-64
2023/02/23 08:25:20;;;;;;;;;;;9.30;99.90;;;;;;5063784;28;20426;-64
2023/02/23 08:27:46;;;;;;;;;;;9.20;99.90;;;;;;5062667;28;19928;-63
2023/02/23 08:30:14;;;;;;;;;;;9.20;99.90;;;;;;5064886;28;19924;-63
2023/02/23 08:32:40;;;;;;;;;;;9.10;99.90;;;;;;5065686;28;19946;-63
2023/02/23 08:35:09;;;;;;;;;;;8.90;99.90;;;;;;5063901;28;19928;-63
2023/02/23 08:37:36;;;;;;;;;;;9.00;99.90;;;;;;5062908;28;20395;-63
2023/02/23 08:40:02;;;;;;;;;;;8.90;99.90;;;;;;5065687;28;20441;-62
2023/02/23 08:42:29;;;;;;;;;;;8.80;99.90;;;;;;5067254;28;19981;-63
2023/02/23 08:44:55;;;;;;;;;;;8.80;99.90;;;;;;5074010;28;19928;-64
2023/02/23 08:47:23;;;;;;;;;;;8.80;99.90;;;;;;5066268;28;19928;-66
2023/02/23 08:49:49;;;;;;;;;;;8.90;99.90;;;;;;5066906;28;19936;-66
2023/02/23 08:52:17;;;;;;;;;;;8.80;99.90;;;;;;5068268;28;20337;-65
2023/02/23 08:54:46;;;;;;;;;;;8.80;99.90;;;;;;5063097;28;21492;-66
2023/02/23 08:57:12;;;;;;;;;;;8.70;99.90;;;;;;5061776;28;19924;-65
2023/02/23 08:59:40;;;;;;;;;;;8.60;99.90;;;;;;5067593;28;20307;-64
2023/02/23 09:02:07;;;;;;;;;;;8.70;99.90;;;;;;5067461;28;20007;-63
2023/02/23 09:04:34;;;;;;;;;;;8.70;99.90;;;;;;5062389;28;20419;-66
2023/02/23 09:07:00;;;;;;;;;;;8.90;99.90;;;;;;5063469;28;19928;-63
2023/02/23 09:09:28;;;;;;;;;;;8.90;99.90;;;;;;5065081;28;19928;-62
2023/02/23 09:11:55;;;;;;;;;;;8.80;99.90;;;;;;5063751;28;20308;-63
2023/02/23 09:14:21;;;;;;;;;;;8.90;99.90;;;;;;5062948;28;19929;-61
2023/02/23 09:16:48;;;;;;;;;;;8.90;99.90;;;;;;5064492;28;19924;-63
2023/02/23 09:19:14;;;;;;;;;;;8.90;99.90;;;;;;5066729;28;19925;-61
2023/02/23 09:21:42;;;;;;;;;;;9.10;99.90;;;;;;5065331;28;19924;-62
2023/02/23 09:24:09;;;;;;;;;;;9.10;99.90;;;;;;5063681;28;19925;-63
2023/02/23 09:26:38;;;;;;;;;;;9.20;99.90;;;;;;5062003;28;19928;-63
2023/02/23 09:29:06;;;;;;;;;;;9.00;99.90;;;;;;5060962;28;19967;-63
2023/02/23 09:31:33;;;;;;;;;;;9.20;99.90;;;;;;5064733;28;19928;-63
2023/02/23 09:34:00;;;;;;;;;;;9.20;99.90;;;;;;5061475;28;19986;-63
2023/02/23 09:36:27;;;;;;;;;;;9.10;99.90;;;;;;5062270;28;19933;-62
2023/02/23 09:38:56;;;;;;;;;;;9.10;99.90;;;;;;5065530;28;19924;-62
2023/02/23 09:41:35;;;;;;;;;;;9.10;99.90;;;;;;5065529;28;20023;-66
2023/02/23 09:44:06;;;;;;;;;;;9.10;99.90;;;;;;5062982;28;20417;-61
2023/02/23 09:46:37;;;;;;;;;;;9.10;99.90;;;;;;5066489;28;19925;-61
2023/02/23 09:49:04;;;;;;;;;;;9.10;99.90;;;;;;5066693;28;19932;-62
2023/02/23 09:51:35;;;;;;;;;;;9.20;99.90;;;;;;5068979;28;19928;-62
2023/02/23 09:54:03;;;;;;;;;;;9.10;99.90;;;;;;5074930;28;19925;-63
2023/02/23 09:56:32;;;;;;;;;;;9.20;99.90;;;;;;5070258;28;19978;-65
2023/02/23 09:59:00;;;;;;;;;;;9.10;99.90;;;;;;5072110;28;19947;-64
2023/02/23 10:01:49;;;;;;;;;;;9.10;99.90;;;;;;5062423;28;19954;-65
2023/02/23 10:04:19;;;;;;;;;;;9.10;99.90;;;;;;5053292;28;19929;-64
2023/02/23 10:06:49;;;;;;;;;;;9.10;99.90;;;;;;5052864;28;19925;-63
2023/02/23 10:09:18;;;;;;;;;;;9.10;99.90;;;;;;5067331;28;20350;-61
2023/02/23 10:11:46;;;;;;;;;;;9.10;99.90;;;;;;5062489;28;19924;-59
2023/02/23 10:14:27;;;;;;;;;;;9.00;99.90;;;;;;5063918;28;19924;-61
2023/02/23 10:17:01;;;;;;;;;;;9.00;99.90;;;;;;5057175;28;19924;-62
2023/02/23 10:19:30;;;;;;;;;;;8.90;99.90;;;;;;5066857;28;20279;-59
2023/02/23 10:21:59;;;;;;;;;;;9.00;99.90;;;;;;5060642;28;19998;-60
2023/02/23 10:24:28;;;;;;;;;;;8.90;99.90;;;;;;5063038;28;19975;-62
2023/02/23 10:26:56;;;;;;;;;;;8.90;99.90;;;;;;5060100;28;19933;-61
2023/02/23 10:29:26;;;;;;;;;;;9.10;99.90;;;;;;5065933;28;19925;-61
2023/02/23 10:31:55;;;;;;;;;;;9.10;99.90;;;;;;5057063;28;19956;-61
2023/02/23 10:34:24;;;;;;;;;;;9.10;99.90;;;;;;5062036;28;20426;-61
2023/02/23 10:36:52;;;;;;;;;;;9.10;99.90;;;;;;5061251;28;20409;-61
2023/02/23 10:39:18;;;;;;;;;;;9.10;99.90;;;;;;5060491;28;20023;-61
2023/02/23 10:41:45;;;;;;;;;;;9.10;99.90;;;;;;5057922;28;19929;-61
2023/02/23 10:44:18;;;;;;;;;;;9.00;99.90;;;;;;5067083;28;19958;-61
2023/02/23 10:46:46;;;;;;;;;;;9.00;99.90;;;;;;5064044;28;19974;-60
2023/02/23 10:49:17;;;;;;;;;;;9.10;99.90;;;;;;5059749;28;20363;-63
2023/02/23 10:51:45;;;;;;;;;;;9.10;99.90;;;;;;5067857;28;20384;-63
2023/02/23 10:54:26;;;;;;;;;;;8.90;99.90;;;;;;5062234;28;20354;-63
2023/02/23 10:56:53;;;;;;;;;;;9.00;99.90;;;;;;5060649;28;19932;-63
2023/02/23 10:59:20;;;;;;;;;;;9.10;99.90;;;;;;5064021;28;20296;-63
2023/02/23 11:01:46;;;;;;;;;;;9.20;99.90;;;;;;5063764;28;19931;-63
2023/02/23 11:04:16;;;;;;;;;;;9.00;99.90;;;;;;5061095;28;19975;-62
2023/02/23 11:06:43;;;;;;;;;;;8.80;99.90;;;;;;5060727;28;19925;-63
2023/02/23 11:09:34;;;;;;;;;;;8.90;99.90;;;;;;5059471;28;19929;-65
2023/02/23 11:12:02;;;;;;;;;;;8.90;99.90;;;;;;5042250;28;19944;-64
2023/02/23 11:14:30;;;;;;;;;;;8.50;99.90;;;;;;5060627;28;19929;-61
2023/02/23 11:16:58;;;;;;;;;;;8.70;99.90;;;;;;5063762;28;19929;-62
2023/02/23 11:19:35;;;;;;;;;;;8.70;99.90;;;;;;5066299;28;19924;-63
2023/02/23 11:22:03;;;;;;;;;;;8.70;99.90;;;;;;5058015;28;20018;-62
2023/02/23 11:24:33;;;;;;;;;;;8.70;99.90;;;;;;5060147;28;19972;-63
2023/02/23 11:27:05;;;;;;;;;;;8.50;99.90;;;;;;5061204;28;20035;-64
2023/02/23 11:29:36;;;;;;;;;;;8.60;99.90;;;;;;5061395;28;19928;-63
2023/02/23 11:32:07;;;;;;;;;;;8.60;99.90;;;;;;5062664;28;19924;-62
2023/02/23 11:34:39;;;;;;;;;;;8.70;99.90;;;;;;5066100;28;20039;-63
2023/02/23 11:37:06;;;;;;;;;;;8.60;99.90;;;;;;5060303;28;19932;-63
2023/02/23 11:39:33;;;;;;;;;;;8.60;99.90;;;;;;5065595;28;19931;-63
2023/02/23 11:42:10;;;;;;;;;;;8.60;99.90;;;;;;5064113;28;19994;-63
2023/02/23 11:44:37;;;;;;;;;;;8.70;99.90;;;;;;5063610;28;20287;-64
2023/02/23 11:47:03;;;;;;;;;;;8.70;99.90;;;;;;5062077;28;19975;-65
2023/02/23 11:49:32;;;;;;;;;;;8.50;99.90;;;;;;5066206;28;19924;-65
2023/02/23 11:51:58;;;;;;;;;;;8.60;99.90;;;;;;5057929;28;20375;-65
2023/02/23 11:54:27;;;;;;;;;;;8.40;99.90;;;;;;5065321;28;19936;-67
2023/02/23 11:56:54;;;;;;;;;;;8.40;99.90;;;;;;5064407;28;20306;-67
2023/02/23 11:59:24;;;;;;;;;;;8.90;99.90;;;;;;5064944;28;19925;-68
2023/02/23 12:01:52;;;;;;;;;;;9.00;99.90;;;;;;5068307;28;20349;-68
2023/02/23 12:04:23;;;;;;;;;;;9.20;99.90;;;;;;5069201;28;19929;-65
2023/02/23 12:06:50;;;;;;;;;;;9.30;99.90;;;;;;5064856;28;19970;-67
2023/02/23 12:09:20;;;;;;;;;;;9.40;99.90;;;;;;5066367;28;20383;-66
2023/02/23 12:11:49;;;;;;;;;;;9.60;99.90;;;;;;5065065;28;19978;-67
2023/02/23 12:14:21;;;;;;;;;;;9.70;99.90;;;;;;5067120;28;19924;-67
2023/02/23 12:16:51;;;;;;;;;;;9.80;99.90;;;;;;5063964;28;19925;-67
2023/02/23 12:19:22;;;;;;;;;;;9.80;99.90;;;;;;5068703;28;20350;-64
2023/02/23 12:21:53;;;;;;;;;;;9.60;99.90;;;;;;5066720;28;19973;-63
2023/02/23 12:24:23;;;;;;;;;;;9.50;99.90;;;;;;5070549;28;19933;-63
2023/02/23 12:26:51;;;;;;;;;;;9.30;99.90;;;;;;5064767;28;19937;-65
2023/02/23 12:29:21;;;;;;;;;;;9.10;99.90;;;;;;5065535;28;19924;-65
2023/02/23 12:31:50;;;;;;;;;;;8.80;99.90;;;;;;5062305;28;19925;-66
2023/02/23 12:34:21;;;;;;;;;;;8.60;99.90;;;;;;5065926;28;19986;-64
2023/02/23 12:36:50;;;;;;;;;;;8.50;99.90;;;;;;5068018;28;19929;-63
2023/02/23 12:39:23;;;;;;;;;;;8.50;99.90;;;;;;5071466;28;19925;-62
2023/02/23 12:41:55;;;;;;;;;;;8.30;99.90;;;;;;5063007;28;19924;-64
2023/02/23 12:44:28;;;;;;;;;;;8.40;99.90;;;;;;5062841;28;20374;-64
2023/02/23 12:46:57;;;;;;;;;;;8.50;99.90;;;;;;5071157;28;19924;-66
2023/02/23 12:49:30;;;;;;;;;;;8.60;99.90;;;;;;5071339;28;19924;-65
2023/02/23 12:52:01;;;;;;;;;;;8.60;99.90;;;;;;5069623;28;19925;-64
2023/02/23 12:54:29;;;;;;;;;;;8.60;99.90;;;;;;5070152;28;19956;-66
2023/02/23 12:57:01;;;;;;;;;;;8.70;99.90;;;;;;5068072;28;19929;-65
2023/02/23 12:59:42;;;;;;;;;;;8.80;99.90;;;;;;5065392;28;19986;-65
2023/02/23 13:02:12;;;;;;;;;;;8.70;99.90;;;;;;5054572;28;19929;-63
2023/02/23 13:05:02;;;;;;;;;;;8.60;99.90;;;;;;5055353;28;20024;-62
2023/02/23 13:07:36;;;;;;;;;;;8.70;99.90;;;;;;5048443;28;20338;-64
2023/02/23 13:10:10;;;;;;;;;;;8.70;99.90;;;;;;5067075;28;19925;-64
2023/02/23 13:12:43;;;;;;;;;;;8.60;99.90;;;;;;5063801;28;19965;-62
2023/02/23 13:15:18;;;;;;;;;;;8.50;99.90;;;;;;5061137;28;20306;-63
2023/02/23 13:17:48;;;;;;;;;;;8.40;99.90;;;;;;5070652;28;19935;-63
2023/02/23 13:20:18;;;;;;;;;;;8.50;99.90;;;;;;5075024;28;19924;-63
2023/02/23 13:22:49;;;;;;;;;;;8.50;99.90;;;;;;5067326;28;20337;-63
2023/02/23 13:25:24;;;;;;;;;;;8.60;99.90;;;;;;5053443;28;19925;-64
2023/02/23 13:27:52;;;;;;;;;;;8.60;99.90;;;;;;5061063;28;19925;-65
2023/02/23 13:30:19;;;;;;;;;;;8.50;99.90;;;;;;5060050;28;20585;-65
2023/02/23 13:32:46;;;;;;;;;;;8.50;99.90;;;;;;5065258;28;20454;-66
2023/02/23 13:35:14;;;;;;;;;;;8.50;99.90;;;;;;5063775;28;19925;-63
2023/02/23 13:37:44;;;;;;;;;;;8.50;99.90;;;;;;5062329;28;19925;-63
2023/02/23 13:40:25;;;;;;;;;;;8.50;99.90;;;;;;5063570;28;19978;-62
2023/02/23 13:42:58;;;;;;;;;;;8.50;99.90;;;;;;5057860;28;19932;-63
2023/02/23 13:45:36;;;;;;;;;;;8.50;99.90;;;;;;5064887;28;20027;-65
2023/02/23 13:48:06;;;;;;;;;;;8.30;99.90;;;;;;5070099;28;19924;-63
2023/02/23 13:50:36;;;;;;;;;;;8.40;99.90;;;;;;5062019;28;19931;-64
2023/02/23 13:53:06;;;;;;;;;;;8.40;99.90;;;;;;5061016;28;20386;-64
2023/02/23 13:55:44;;;;;;;;;;;8.30;99.90;;;;;;5063936;28;19924;-64
2023/02/23 13:58:14;;;;;;;;;;;8.40;99.90;;;;;;5053289;28;19950;-64
2023/02/23 14:00:41;;;;;;;;;;;8.30;99.90;;;;;;5068735;28;20015;-64
2023/02/23 14:03:19;;;;;;;;;;;8.20;99.90;;;;;;5062407;28;19924;-63
2023/02/23 14:05:45;;;;;;;;;;;8.30;99.90;;;;;;5061944;28;20355;-63
2023/02/23 14:08:20;;;;;;;;;;;8.20;99.90;;;;;;5061905;28;19975;-62
2023/02/23 14:10:46;;;;;;;;;;;8.20;99.90;;;;;;5061172;28;19979;-63
2023/02/23 14:13:31;;;;;;;;;;;8.30;99.90;;;;;;5065264;28;19943;-64
2023/02/23 14:16:25;;;;;;;;;;;8.20;99.90;;;;;;5061492;28;19928;-64
2023/02/23 14:19:04;;;;;;;;;;;8.20;99.90;;;;;;5026625;28;19928;-64
2023/02/23 14:21:33;;;;;;;;;;;8.20;99.90;;;;;;5051802;28;19978;-63
2023/02/23 14:24:04;;;;;;;;;;;8.30;99.90;;;;;;5053862;28;20016;-61
2023/02/23 14:26:41;;;;;;;;;;;8.40;99.90;;;;;;5061635;28;20020;-61
2023/02/23 14:29:21;;;;;;;;;;;8.40;99.90;;;;;;5062752;28;19925;-62
2023/02/23 14:31:55;;;;;;;;;;;8.40;99.90;;;;;;5059639;28;20351;-62
2023/02/23 14:34:23;;;;;;;;;;;8.30;99.90;;;;;;5063517;28;20045;-61
2023/02/23 14:36:55;;;;;;;;;;;8.30;99.90;;;;;;5061904;28;19925;-62
2023/02/23 14:39:23;;;;;;;;;;;8.20;99.90;;;;;;5060907;28;19932;-62
2023/02/23 14:41:52;;;;;;;;;;;8.30;99.90;;;;;;5063851;28;19924;-63
2023/02/23 14:44:21;;;;;;;;;;;8.30;99.90;;;;;;5065962;28;20448;-66
2023/02/23 14:46:48;;;;;;;;;;;8.50;99.90;;;;;;5062153;28;20382;-64
2023/02/23 14:49:18;;;;;;;;;;;8.50;99.90;;;;;;5064082;28;19971;-62
2023/02/23 14:51:47;;;;;;;;;;;8.50;99.90;;;;;;5065134;28;19932;-62
2023/02/23 14:54:22;;;;;;;;;;;8.60;99.90;;;;;;5060577;28;19925;-62
2023/02/23 14:56:49;;;;;;;;;;;8.60;99.90;;;;;;5062573;28;19977;-62
2023/02/23 14:59:18;;;;;;;;;;;8.60;99.90;;;;;;5059880;28;19928;-62
2023/02/23 15:01:44;;;;;;;;;;;8.60;99.90;;;;;;5061672;28;20008;-62
2023/02/23 15:04:12;;;;;;;;;;;8.70;99.90;;;;;;5060801;28;19929;-62
2023/02/23 15:06:40;;;;;;;;;;;8.60;99.90;;;;;;5064525;28;19961;-62
2023/02/23 15:09:08;;;;;;;;;;;8.60;99.90;;;;;;5064107;28;19924;-62
2023/02/23 15:11:36;;;;;;;;;;;8.50;99.90;;;;;;5053679;28;19929;-62
2023/02/23 15:14:03;;;;;;;;;;;8.40;99.90;;;;;;5068697;28;20028;-62
2023/02/23 15:16:33;;;;;;;;;;;8.50;99.90;;;;;;5063198;28;20327;-62
2023/02/23 15:19:30;;;;;;;;;;;8.50;99.90;;;;;;5069419;28;20391;-62
2023/02/23 15:21:58;;;;;;;;;;;8.50;99.90;;;;;;5067093;28;20298;-62
2023/02/23 15:24:27;;;;;;;;;;;8.50;99.90;;;;;;5061830;28;19947;-62
2023/02/23 15:26:54;;;;;;;;;;;8.60;99.90;;;;;;5060227;28;19968;-62
2023/02/23 15:29:21;;;;;;;;;;;8.60;99.90;;;;;;5064646;28;20559;-62
2023/02/23 15:31:50;;;;;;;;;;;8.60;99.90;;;;;;5060693;28;19929;-62
2023/02/23 15:34:18;;;;;;;;;;;8.70;99.90;;;;;;5056579;28;20015;-62
2023/02/23 15:36:47;;;;;;;;;;;8.60;99.90;;;;;;5064588;28;19925;-63
2023/02/23 15:39:16;;;;;;;;;;;8.60;99.90;;;;;;5063468;28;20295;-62
2023/02/23 15:41:45;;;;;;;;;;;8.70;99.90;;;;;;5062538;28;19932;-62
2023/02/23 15:44:13;;;;;;;;;;;8.70;99.90;;;;;;5064033;28;20426;-62
2023/02/23 15:46:40;;;;;;;;;;;8.70;99.90;;;;;;5063168;28;19935;-63
2023/02/23 15:49:10;;;;;;;;;;;8.80;99.90;;;;;;5061797;28;19932;-63
2023/02/23 15:51:37;;;;;;;;;;;8.70;99.90;;;;;;5063712;28;19925;-61
2023/02/23 15:54:12;;;;;;;;;;;8.70;99.90;;;;;;5063259;28;20395;-62
2023/02/23 15:56:39;;;;;;;;;;;8.70;99.90;;;;;;5066382;28;20295;-62